Terminal Aerodrome Forecast
Issued by NWS

Home | Current Version | Previous Version | Text Only | Print | Product List | Glossary On
Versions: 1 2 3 4 5 6 7 8 9 10 11 12 13 14 15 16 17 18 19 20
000
FTUS41 KBOX 281120
TAFBED
TAF
KBED 281120Z 2812/2912 VRB04KT P6SM BKN060
     FM281400 VRB04KT P6SM BKN070
     FM281600 14004KT P6SM BKN060=

USA.gov is the U.S. government's official web portal to all federal, state and local government web resources and services.